2MY3 weather

Cambridge Medical Center Heliport
Cambridge, Minnesota, United States

Public forecast

Using degrees Fahrenheit for public forecast. Weather courtesy of forecast.io.

Closest aviation weather report (METAR) to Cambridge Medical Center Heliport

Closest report is Cambridge Municipal Airport, 1.5 nm (2.7 km) WSW. Retrieved 2020/02/24 02:35 UTC (18 minutes ago):

KCBG 240235Z AUTO 29007KT 10SM CLR 03/M04 A2996 RMK AO2

Closest aviation forecast (TAF) to Cambridge Medical Center Heliport

Forecast is more than 12 hours old.

Closest forecast is Anoka County-Blaine (Janes Field) Airport, 25.3 nm (46.8 km) S. Retrieved 2018/02/05 00:21 UTC (2 years ago):

TAF KANE 052320Z 0600/0624 28008KT P6SM FEW025 FM060300 30005KT P6SM FEW250 FM061600 21005KT P6SM SCT250 AMD NOT SKED